Time;durP1;ratioP1;P1;durP2;ratioP2;P2;SDS_P1;SDS_P2;PMS_P1;PMS_P2;Temp;Humidity;BMP_temperature;BMP_pressure;BME280_temperature;BME280_humidity;BME280_pressure;Samples;Min_cycle;Max_cycle;Signal;HPM_P1;HPM_P2
2023/05/21 00:01:52;;;;;;;1.73;1.63;;;;;;;;;;6281912;22;20019;-81
2023/05/21 00:04:18;;;;;;;2.00;1.73;;;;;;;;;;6282110;22;20019;-82
2023/05/21 00:06:44;;;;;;;2.05;1.20;;;;;;;;;;6281634;22;20012;-82
2023/05/21 00:09:11;;;;;;;2.72;1.67;;;;;;;;;;6307442;22;20028;-82
2023/05/21 00:11:37;;;;;;;1.98;1.35;;;;;;;;;;6282517;22;20018;-82
2023/05/21 00:14:04;;;;;;;1.65;1.55;;;;;;;;;;6307398;22;20011;-82
2023/05/21 00:16:30;;;;;;;2.42;1.70;;;;;;;;;;6307402;22;20340;-81
2023/05/21 00:18:56;;;;;;;2.47;1.40;;;;;;;;;;6308434;22;20313;-82
2023/05/21 00:21:25;;;;;;;1.85;1.73;;;;;;;;;;6307272;22;20015;-81
2023/05/21 00:23:55;;;;;;;2.13;1.40;;;;;;;;;;6307277;22;20019;-81
2023/05/21 00:26:22;;;;;;;2.70;1.60;;;;;;;;;;6307270;22;20086;-82
2023/05/21 00:28:49;;;;;;;2.58;1.40;;;;;;;;;;6308267;22;20019;-82
2023/05/21 00:31:16;;;;;;;1.65;1.33;;;;;;;;;;6307147;22;20437;-82
2023/05/21 00:33:42;;;;;;;3.03;1.70;;;;;;;;;;6281478;22;20035;-82
2023/05/21 00:36:09;;;;;;;2.78;1.42;;;;;;;;;;6307170;22;20376;-82
2023/05/21 00:38:36;;;;;;;2.42;1.20;;;;;;;;;;6281178;22;20045;-83
2023/05/21 00:41:03;;;;;;;2.75;1.75;;;;;;;;;;6308054;22;20364;-82
2023/05/21 00:43:29;;;;;;;2.10;1.15;;;;;;;;;;6307227;22;20065;-82
2023/05/21 00:45:57;;;;;;;1.75;1.33;;;;;;;;;;6307115;22;20015;-82
2023/05/21 00:48:23;;;;;;;1.63;1.52;;;;;;;;;;6306969;22;20094;-82
2023/05/21 00:50:49;;;;;;;1.52;1.42;;;;;;;;;;6281166;22;20076;-82
2023/05/21 00:53:18;;;;;;;2.05;1.85;;;;;;;;;;6306932;22;20021;-82
2023/05/21 00:55:44;;;;;;;2.13;1.73;;;;;;;;;;6282021;22;20065;-82
2023/05/21 00:58:10;;;;;;;2.60;1.85;;;;;;;;;;6307906;22;20015;-82
2023/05/21 01:00:36;;;;;;;1.98;1.40;;;;;;;;;;6306508;22;20395;-82
2023/05/21 01:03:04;;;;;;;2.83;1.23;;;;;;;;;;6307635;22;20027;-81
2023/05/21 01:05:31;;;;;;;1.92;1.67;;;;;;;;;;6307320;22;20016;-82
2023/05/21 01:07:57;;;;;;;2.10;1.63;;;;;;;;;;6281131;22;20023;-82
2023/05/21 01:10:24;;;;;;;2.38;2.20;;;;;;;;;;6281226;22;20015;-82
2023/05/21 01:12:51;;;;;;;1.95;1.85;;;;;;;;;;6306739;22;20015;-82
2023/05/21 01:15:17;;;;;;;2.55;2.28;;;;;;;;;;6282050;22;20052;-82
2023/05/21 01:17:47;;;;;;;2.85;1.60;;;;;;;;;;6280957;22;20030;-82
2023/05/21 01:20:16;;;;;;;4.93;2.38;;;;;;;;;;6282050;22;20023;-82
2023/05/21 01:22:49;;;;;;;3.00;1.83;;;;;;;;;;6307693;22;20133;-82
2023/05/21 01:25:15;;;;;;;2.97;1.98;;;;;;;;;;6306711;22;20012;-82
2023/05/21 01:27:41;;;;;;;2.00;1.80;;;;;;;;;;6307636;22;20045;-82
2023/05/21 01:30:07;;;;;;;2.53;2.33;;;;;;;;;;6306234;22;20015;-82
2023/05/21 01:32:33;;;;;;;2.60;2.50;;;;;;;;;;6280816;22;20020;-82
2023/05/21 01:35:01;;;;;;;5.28;2.65;;;;;;;;;;6280868;22;20019;-82
2023/05/21 01:37:44;;;;;;;2.95;2.75;;;;;;;;;;6306700;22;20015;-82
2023/05/21 01:40:15;;;;;;;2.80;2.58;;;;;;;;;;6307788;22;20066;-81
2023/05/21 01:42:45;;;;;;;2.80;2.60;;;;;;;;;;6306656;22;20019;-81
2023/05/21 01:45:15;;;;;;;2.40;2.30;;;;;;;;;;6308957;22;20325;-81
2023/05/21 01:47:44;;;;;;;2.88;2.67;;;;;;;;;;6306993;22;20068;-81
2023/05/21 01:50:10;;;;;;;2.92;2.72;;;;;;;;;;6307606;22;20065;-81
2023/05/21 01:52:36;;;;;;;5.20;2.78;;;;;;;;;;6306891;22;20015;-81
2023/05/21 01:55:03;;;;;;;2.45;2.35;;;;;;;;;;6281180;22;20023;-81
2023/05/21 01:57:29;;;;;;;2.72;2.47;;;;;;;;;;6307975;22;20023;-81
2023/05/21 01:59:56;;;;;;;2.70;2.50;;;;;;;;;;6307956;22;20019;-81
2023/05/21 02:02:22;;;;;;;3.13;2.80;;;;;;;;;;6310225;22;20074;-81
2023/05/21 02:04:49;;;;;;;2.75;2.55;;;;;;;;;;6283093;22;20409;-81
2023/05/21 02:07:15;;;;;;;3.63;2.30;;;;;;;;;;6310184;22;20016;-81
2023/05/21 02:09:41;;;;;;;2.25;2.10;;;;;;;;;;6308557;22;20015;-81
2023/05/21 02:12:08;;;;;;;3.22;2.92;;;;;;;;;;6308840;22;20019;-81
2023/05/21 02:14:34;;;;;;;3.30;2.92;;;;;;;;;;6308181;22;20026;-81
2023/05/21 02:17:00;;;;;;;2.80;2.60;;;;;;;;;;6308579;22;20437;-81
2023/05/21 02:19:26;;;;;;;3.08;2.75;;;;;;;;;;6308595;22;20023;-81
2023/05/21 02:21:52;;;;;;;3.45;3.10;;;;;;;;;;6282801;22;20103;-81
2023/05/21 02:24:18;;;;;;;2.95;2.75;;;;;;;;;;6308032;22;20015;-82
2023/05/21 02:26:47;;;;;;;3.45;2.67;;;;;;;;;;6282681;22;20070;-82
2023/05/21 02:29:13;;;;;;;2.45;2.30;;;;;;;;;;6282567;22;20020;-81
2023/05/21 02:31:39;;;;;;;3.85;2.97;;;;;;;;;;6309818;22;20015;-82
2023/05/21 02:34:06;;;;;;;5.18;3.67;;;;;;;;;;6309324;22;20049;-82
2023/05/21 02:36:34;;;;;;;5.00;2.67;;;;;;;;;;6308145;22;20445;-81
2023/05/21 02:39:01;;;;;;;3.65;3.25;;;;;;;;;;6309125;22;20054;-81
2023/05/21 02:41:27;;;;;;;4.30;3.03;;;;;;;;;;6282610;22;20495;-81
2023/05/21 02:43:53;;;;;;;3.28;2.95;;;;;;;;;;6309868;22;20016;-81
2023/05/21 02:46:19;;;;;;;3.45;3.15;;;;;;;;;;6309235;22;20011;-81
2023/05/21 02:48:45;;;;;;;3.00;2.80;;;;;;;;;;6309255;22;20023;-81
2023/05/21 02:51:11;;;;;;;3.63;3.22;;;;;;;;;;6308627;22;20098;-81
2023/05/21 02:53:38;;;;;;;3.90;3.38;;;;;;;;;;6308065;22;20456;-81
2023/05/21 02:56:04;;;;;;;3.42;2.90;;;;;;;;;;6282355;22;20452;-81
2023/05/21 02:58:30;;;;;;;3.85;3.58;;;;;;;;;;6309610;22;20445;-81
2023/05/21 03:00:56;;;;;;;4.10;3.70;;;;;;;;;;6308138;22;20019;-81
2023/05/21 03:03:22;;;;;;;3.40;3.10;;;;;;;;;;6282858;22;20023;-80
2023/05/21 03:05:49;;;;;;;5.18;3.50;;;;;;;;;;6282475;22;20019;-81
2023/05/21 03:08:15;;;;;;;3.67;3.38;;;;;;;;;;6282350;22;20019;-81
2023/05/21 03:10:41;;;;;;;4.05;3.65;;;;;;;;;;6309621;22;20081;-81
2023/05/21 03:13:07;;;;;;;3.90;3.60;;;;;;;;;;6310182;22;20015;-81
2023/05/21 03:15:34;;;;;;;4.32;3.85;;;;;;;;;;6308756;22;20030;-81
2023/05/21 03:18:00;;;;;;;3.78;3.50;;;;;;;;;;6283215;22;20426;-81
2023/05/21 03:20:27;;;;;;;4.30;3.63;;;;;;;;;;6282385;22;20023;-81
2023/05/21 03:22:53;;;;;;;3.97;3.58;;;;;;;;;;6282045;22;20098;-81
2023/05/21 03:25:20;;;;;;;4.70;4.00;;;;;;;;;;6309471;22;20019;-81
2023/05/21 03:27:46;;;;;;;4.40;3.92;;;;;;;;;;6308084;22;20025;-81
2023/05/21 03:30:13;;;;;;;4.95;4.25;;;;;;;;;;6307857;22;20030;-81
2023/05/21 03:32:40;;;;;;;5.40;3.88;;;;;;;;;;6309253;22;20433;-81
2023/05/21 03:35:06;;;;;;;4.50;4.15;;;;;;;;;;6307722;22;20015;-81
2023/05/21 03:37:32;;;;;;;4.30;3.90;;;;;;;;;;6309216;22;20106;-81
2023/05/21 03:39:58;;;;;;;5.47;4.05;;;;;;;;;;6309254;22;20037;-81
2023/05/21 03:42:24;;;;;;;5.15;4.32;;;;;;;;;;6308667;22;20092;-81
2023/05/21 03:44:50;;;;;;;4.78;4.38;;;;;;;;;;6308699;22;20360;-81
2023/05/21 03:47:16;;;;;;;5.40;4.90;;;;;;;;;;6308674;22;20019;-80
2023/05/21 03:49:42;;;;;;;5.57;4.70;;;;;;;;;;6309791;22;20019;-80
2023/05/21 03:52:08;;;;;;;5.65;4.68;;;;;;;;;;6307527;22;20015;-81
2023/05/21 03:54:34;;;;;;;4.80;4.40;;;;;;;;;;6307196;22;20011;-80
2023/05/21 03:57:00;;;;;;;6.13;4.68;;;;;;;;;;6281325;22;20105;-80
2023/05/21 03:59:26;;;;;;;5.10;4.60;;;;;;;;;;6307906;22;20405;-82
2023/05/21 04:01:52;;;;;;;5.93;4.20;;;;;;;;;;6309042;22;20015;-82
2023/05/21 04:04:19;;;;;;;6.03;4.50;;;;;;;;;;6307020;22;20061;-81
2023/05/21 04:06:45;;;;;;;5.05;4.35;;;;;;;;;;6307434;22;20089;-81
2023/05/21 04:09:11;;;;;;;5.07;4.68;;;;;;;;;;6281337;22;20027;-81
2023/05/21 04:11:37;;;;;;;5.50;4.97;;;;;;;;;;6281751;22;20015;-81
2023/05/21 04:14:03;;;;;;;6.07;5.00;;;;;;;;;;6307394;22;20364;-81
2023/05/21 04:16:29;;;;;;;5.95;4.53;;;;;;;;;;6308407;22;20057;-82
2023/05/21 04:18:55;;;;;;;5.80;4.47;;;;;;;;;;6281564;22;20012;-81
2023/05/21 04:21:21;;;;;;;5.18;4.72;;;;;;;;;;6307204;22;20023;-81
2023/05/21 04:23:47;;;;;;;4.88;4.30;;;;;;;;;;6308767;22;20578;-82
2023/05/21 04:26:15;;;;;;;4.53;4.22;;;;;;;;;;6307031;22;20457;-82
2023/05/21 04:28:41;;;;;;;5.30;4.40;;;;;;;;;;6307098;22;20026;-82
2023/05/21 04:31:07;;;;;;;4.45;4.07;;;;;;;;;;6282523;22;20019;-81
2023/05/21 04:33:34;;;;;;;5.80;4.22;;;;;;;;;;6307383;22;20070;-81
2023/05/21 04:36:02;;;;;;;4.53;4.13;;;;;;;;;;6307151;22;20018;-81
2023/05/21 04:38:29;;;;;;;6.65;4.53;;;;;;;;;;6307088;22;20015;-81
2023/05/21 04:40:57;;;;;;;5.63;5.07;;;;;;;;;;6307276;22;20100;-82
2023/05/21 04:43:27;;;;;;;5.70;4.40;;;;;;;;;;6281673;22;20015;-81
2023/05/21 04:45:53;;;;;;;6.15;5.20;;;;;;;;;;6307110;22;20023;-81
2023/05/21 04:48:20;;;;;;;6.28;5.05;;;;;;;;;;6282322;22;20023;-81
2023/05/21 04:50:46;;;;;;;4.97;4.28;;;;;;;;;;6308596;22;20015;-82
2023/05/21 04:53:12;;;;;;;5.80;4.65;;;;;;;;;;6306898;22;20399;-81
2023/05/21 04:55:38;;;;;;;5.00;4.47;;;;;;;;;;6309183;22;20082;-81
2023/05/21 04:58:10;;;;;;;5.22;4.13;;;;;;;;;;6307916;22;20034;-82
2023/05/21 05:00:36;;;;;;;5.57;5.10;;;;;;;;;;6308118;22;20024;-81
2023/05/21 05:03:02;;;;;;;6.55;4.38;;;;;;;;;;6306720;22;20027;-81
2023/05/21 05:05:28;;;;;;;4.57;4.18;;;;;;;;;;6308507;22;20023;-81
2023/05/21 05:07:56;;;;;;;5.00;4.40;;;;;;;;;;6306865;22;20034;-81
2023/05/21 05:10:22;;;;;;;5.05;4.18;;;;;;;;;;6306825;22;20019;-81
2023/05/21 05:12:48;;;;;;;7.50;4.43;;;;;;;;;;6306744;22;20022;-82
2023/05/21 05:15:14;;;;;;;4.57;4.00;;;;;;;;;;6280962;22;20508;-81
2023/05/21 05:17:40;;;;;;;3.78;3.47;;;;;;;;;;6306430;22;20022;-82
2023/05/21 05:20:08;;;;;;;4.78;4.35;;;;;;;;;;6307802;22;20065;-81
2023/05/21 05:22:34;;;;;;;4.53;3.60;;;;;;;;;;6307795;22;20015;-81
2023/05/21 05:25:00;;;;;;;4.55;4.13;;;;;;;;;;6306831;22;20011;-81
2023/05/21 05:27:26;;;;;;;4.63;4.32;;;;;;;;;;6308199;22;20019;-81
2023/05/21 05:29:52;;;;;;;4.50;3.58;;;;;;;;;;6280905;22;20023;-82
2023/05/21 05:32:18;;;;;;;4.05;3.80;;;;;;;;;;6308244;22;20060;-81
2023/05/21 05:34:45;;;;;;;4.10;3.75;;;;;;;;;;6280503;22;20469;-82
2023/05/21 05:37:11;;;;;;;4.47;3.45;;;;;;;;;;6306999;22;20011;-81
2023/05/21 05:39:37;;;;;;;6.22;4.30;;;;;;;;;;6280661;22;20072;-81
2023/05/21 05:42:03;;;;;;;3.78;3.40;;;;;;;;;;6307361;22;20011;-81
2023/05/21 05:44:29;;;;;;;3.58;3.20;;;;;;;;;;6306631;22;20020;-82
2023/05/21 05:46:56;;;;;;;4.03;3.65;;;;;;;;;;6307756;22;20510;-81
2023/05/21 05:49:22;;;;;;;4.53;3.75;;;;;;;;;;6281960;22;20345;-82
2023/05/21 05:51:48;;;;;;;7.82;3.70;;;;;;;;;;6281383;22;20019;-81
2023/05/21 05:54:14;;;;;;;4.28;3.85;;;;;;;;;;6306654;22;20027;-81
2023/05/21 05:56:40;;;;;;;4.20;3.40;;;;;;;;;;6280683;22;20019;-81
2023/05/21 05:59:06;;;;;;;4.82;3.88;;;;;;;;;;6306545;22;20015;-82
2023/05/21 06:01:33;;;;;;;4.40;3.85;;;;;;;;;;6280923;22;20322;-82
2023/05/21 06:03:59;;;;;;;3.65;3.20;;;;;;;;;;6306307;22;20068;-81
2023/05/21 06:06:25;;;;;;;5.25;3.22;;;;;;;;;;6306607;22;20019;-82
2023/05/21 06:08:51;;;;;;;6.88;3.58;;;;;;;;;;6306777;22;20341;-82
2023/05/21 06:11:17;;;;;;;5.10;3.63;;;;;;;;;;6306573;22;20062;-82
2023/05/21 06:13:44;;;;;;;4.50;4.07;;;;;;;;;;6280662;22;20037;-82
2023/05/21 06:16:10;;;;;;;3.83;3.45;;;;;;;;;;6306574;22;20019;-82
2023/05/21 06:18:36;;;;;;;4.28;3.50;;;;;;;;;;6280268;22;20015;-83
2023/05/21 06:21:03;;;;;;;3.38;3.05;;;;;;;;;;6307952;22;20023;-82
2023/05/21 06:23:31;;;;;;;3.88;3.50;;;;;;;;;;6307860;22;20011;-82
2023/05/21 06:25:57;;;;;;;4.25;3.50;;;;;;;;;;6282200;22;20016;-82
2023/05/21 06:28:23;;;;;;;4.82;3.70;;;;;;;;;;6307221;22;20449;-81
2023/05/21 06:30:49;;;;;;;3.50;3.08;;;;;;;;;;6280681;22;20029;-81
2023/05/21 06:33:15;;;;;;;5.43;3.20;;;;;;;;;;6280795;22;20021;-81
2023/05/21 06:35:41;;;;;;;5.75;3.00;;;;;;;;;;6307902;22;20019;-81
2023/05/21 06:38:07;;;;;;;3.30;2.88;;;;;;;;;;6306352;22;20473;-81
2023/05/21 06:40:33;;;;;;;4.35;3.10;;;;;;;;;;6280982;22;20015;-81
2023/05/21 06:42:59;;;;;;;5.55;2.55;;;;;;;;;;6280528;22;20438;-81
2023/05/21 06:45:25;;;;;;;3.83;2.88;;;;;;;;;;6308666;22;20023;-81
2023/05/21 06:47:51;;;;;;;3.80;2.95;;;;;;;;;;6308270;22;20405;-81
2023/05/21 06:50:18;;;;;;;4.47;3.15;;;;;;;;;;6308156;22;20035;-81
2023/05/21 06:52:45;;;;;;;3.75;3.15;;;;;;;;;;6309133;22;20023;-81
2023/05/21 06:55:11;;;;;;;4.30;2.42;;;;;;;;;;6310366;22;20038;-81
2023/05/21 06:57:38;;;;;;;3.30;2.70;;;;;;;;;;6282854;22;20015;-80
2023/05/21 07:00:04;;;;;;;3.63;2.47;;;;;;;;;;6309652;22;20029;-81
2023/05/21 07:02:31;;;;;;;4.70;3.13;;;;;;;;;;6282176;22;20023;-80
2023/05/21 07:04:57;;;;;;;3.30;3.00;;;;;;;;;;6308079;22;20437;-80
2023/05/21 07:07:23;;;;;;;3.28;2.97;;;;;;;;;;6309469;22;20030;-81
2023/05/21 07:09:49;;;;;;;2.88;2.65;;;;;;;;;;6282502;22;20456;-80
2023/05/21 07:12:15;;;;;;;3.58;2.25;;;;;;;;;;6308871;22;20410;-81
2023/05/21 07:14:41;;;;;;;4.53;2.72;;;;;;;;;;6308281;22;20452;-80
2023/05/21 07:17:07;;;;;;;3.30;3.03;;;;;;;;;;6309455;22;20037;-81
2023/05/21 07:19:33;;;;;;;3.78;2.67;;;;;;;;;;6282310;22;20021;-81
2023/05/21 07:21:59;;;;;;;4.88;3.15;;;;;;;;;;6309078;22;20476;-81
2023/05/21 07:24:26;;;;;;;7.30;3.05;;;;;;;;;;6308975;22;20019;-81
2023/05/21 07:26:52;;;;;;;4.40;2.50;;;;;;;;;;6309206;22;20559;-80
2023/05/21 07:29:18;;;;;;;4.85;2.70;;;;;;;;;;6308109;22;20453;-81
2023/05/21 07:31:45;;;;;;;4.28;2.70;;;;;;;;;;6309905;22;20377;-81
2023/05/21 07:34:11;;;;;;;3.65;3.28;;;;;;;;;;6310011;22;20045;-80
2023/05/21 07:36:37;;;;;;;2.92;2.45;;;;;;;;;;6307758;22;20350;-81
2023/05/21 07:39:03;;;;;;;2.92;2.72;;;;;;;;;;6308430;22;20080;-80
2023/05/21 07:41:29;;;;;;;3.38;2.78;;;;;;;;;;6282212;22;20507;-81
2023/05/21 07:43:56;;;;;;;4.82;2.90;;;;;;;;;;6309261;22;20064;-81
2023/05/21 07:46:22;;;;;;;6.03;2.80;;;;;;;;;;6307852;22;20098;-81
2023/05/21 07:48:48;;;;;;;5.03;3.25;;;;;;;;;;6309167;22;20019;-80
2023/05/21 07:51:15;;;;;;;4.97;3.10;;;;;;;;;;6307677;22;20020;-81
2023/05/21 07:53:41;;;;;;;4.93;3.13;;;;;;;;;;6281729;22;20015;-81
2023/05/21 07:56:07;;;;;;;3.28;2.80;;;;;;;;;;6308438;22;20501;-82
2023/05/21 07:58:34;;;;;;;4.88;3.30;;;;;;;;;;6308263;22;20016;-81
2023/05/21 08:01:00;;;;;;;4.00;2.47;;;;;;;;;;6308617;22;20019;-81
2023/05/21 08:03:29;;;;;;;2.88;2.53;;;;;;;;;;6307390;22;20015;-81
2023/05/21 08:05:55;;;;;;;4.55;2.80;;;;;;;;;;6307038;22;20057;-81
2023/05/21 08:08:22;;;;;;;3.28;2.97;;;;;;;;;;6308954;22;20026;-81
2023/05/21 08:10:48;;;;;;;4.60;3.50;;;;;;;;;;6307433;22;20449;-81
2023/05/21 08:13:15;;;;;;;4.50;3.20;;;;;;;;;;6307448;22;20018;-81
2023/05/21 08:15:41;;;;;;;9.85;3.58;;;;;;;;;;6308352;22;20091;-81
2023/05/21 08:18:07;;;;;;;4.22;3.47;;;;;;;;;;6307190;22;20391;-81
2023/05/21 08:20:33;;;;;;;5.40;3.05;;;;;;;;;;6308859;22;20015;-82
2023/05/21 08:23:00;;;;;;;3.88;3.50;;;;;;;;;;6309859;22;20287;-81
2023/05/21 08:25:26;;;;;;;4.43;3.50;;;;;;;;;;6307673;22;20321;-81
2023/05/21 08:27:52;;;;;;;3.50;3.20;;;;;;;;;;6307207;22;20038;-82
2023/05/21 08:30:18;;;;;;;4.28;3.88;;;;;;;;;;6308870;22;20373;-82
2023/05/21 08:32:45;;;;;;;7.38;4.07;;;;;;;;;;6308112;22;20028;-82
2023/05/21 08:35:11;;;;;;;5.30;4.03;;;;;;;;;;6307903;22;20018;-83
2023/05/21 08:37:37;;;;;;;3.67;3.38;;;;;;;;;;6308716;22;20023;-82
2023/05/21 08:40:04;;;;;;;3.90;3.60;;;;;;;;;;6307152;22;20016;-82
2023/05/21 08:42:39;;;;;;;3.50;3.20;;;;;;;;;;6307084;22;20026;-82
2023/05/21 08:45:08;;;;;;;;;;;;;;;;;;6307292;22;20018;-82
2023/05/21 08:47:35;;;;;;;4.60;3.38;;;;;;;;;;6308182;22;20352;-82
2023/05/21 08:50:06;;;;;;;4.10;3.70;;;;;;;;;;6282315;22;20019;-82
2023/05/21 08:52:32;;;;;;;5.53;4.25;;;;;;;;;;6307926;22;20553;-82
2023/05/21 08:54:58;;;;;;;4.20;3.60;;;;;;;;;;6307036;22;20021;-83
2023/05/21 08:57:26;;;;;;;4.43;3.30;;;;;;;;;;6308371;22;20026;-82
2023/05/21 08:59:52;;;;;;;6.00;4.03;;;;;;;;;;6307954;22;20034;-82
2023/05/21 09:02:18;;;;;;;4.95;3.90;;;;;;;;;;6309461;22;20012;-82
2023/05/21 09:04:48;;;;;;;4.72;4.32;;;;;;;;;;6308970;22;20019;-82
2023/05/21 09:07:15;;;;;;;4.00;3.70;;;;;;;;;;6281006;22;20015;-83
2023/05/21 09:09:47;;;;;;;4.28;3.97;;;;;;;;;;6306761;22;20391;-82
2023/05/21 09:12:13;;;;;;;4.95;4.45;;;;;;;;;;6307094;22;20442;-82
2023/05/21 09:14:39;;;;;;;5.05;3.55;;;;;;;;;;6308367;22;20088;-83
2023/05/21 09:17:05;;;;;;;4.18;3.75;;;;;;;;;;6307099;22;20021;-83
2023/05/21 09:19:31;;;;;;;5.35;3.85;;;;;;;;;;6308325;22;20015;-82
2023/05/21 09:22:02;;;;;;;4.65;4.25;;;;;;;;;;6307755;22;20337;-83
2023/05/21 09:24:30;;;;;;;4.07;3.47;;;;;;;;;;6306872;22;20088;-83
2023/05/21 09:26:57;;;;;;;4.07;3.67;;;;;;;;;;6308452;22;20019;-82
2023/05/21 09:29:25;;;;;;;4.30;4.00;;;;;;;;;;6306757;22;20026;-82
2023/05/21 09:31:53;;;;;;;4.72;4.00;;;;;;;;;;6307585;22;20019;-82
2023/05/21 09:34:19;;;;;;;4.70;4.30;;;;;;;;;;6307634;22;20016;-81
2023/05/21 09:36:48;;;;;;;5.07;4.45;;;;;;;;;;6308832;22;20505;-82
2023/05/21 09:39:27;;;;;;;5.30;4.90;;;;;;;;;;6281924;22;20026;-81
2023/05/21 09:41:55;;;;;;;5.40;4.90;;;;;;;;;;6306351;22;20514;-82
2023/05/21 09:44:21;;;;;;;5.60;4.38;;;;;;;;;;6306695;22;20015;-82
2023/05/21 09:46:48;;;;;;;5.90;4.85;;;;;;;;;;6308175;22;20096;-82
2023/05/21 09:49:23;;;;;;;4.97;4.47;;;;;;;;;;6306953;22;20015;-82
2023/05/21 09:51:49;;;;;;;6.35;4.85;;;;;;;;;;6306525;22;20341;-82
2023/05/21 09:54:15;;;;;;;5.75;4.60;;;;;;;;;;6306978;22;20015;-82
2023/05/21 09:56:42;;;;;;;5.43;5.03;;;;;;;;;;6306562;22;20094;-82
2023/05/21 09:59:08;;;;;;;5.55;4.70;;;;;;;;;;6306741;22;20015;-82
2023/05/21 10:01:34;;;;;;;5.72;5.25;;;;;;;;;;6306567;22;20015;-82
2023/05/21 10:04:02;;;;;;;5.68;5.05;;;;;;;;;;6307856;22;20019;-82
2023/05/21 10:06:32;;;;;;;5.65;5.07;;;;;;;;;;6308104;22;20056;-82
2023/05/21 10:09:03;;;;;;;6.50;5.13;;;;;;;;;;6306859;22;20023;-81
2023/05/21 10:11:34;;;;;;;6.78;6.13;;;;;;;;;;6307486;22;20019;-82
2023/05/21 10:14:04;;;;;;;5.97;5.40;;;;;;;;;;6280804;22;20022;-82
2023/05/21 10:16:32;;;;;;;6.60;6.05;;;;;;;;;;6306505;22;20044;-81
2023/05/21 10:18:58;;;;;;;7.88;7.20;;;;;;;;;;6308009;22;20015;-81
2023/05/21 10:21:25;;;;;;;7.38;6.68;;;;;;;;;;6309627;22;20019;-82
2023/05/21 10:23:52;;;;;;;7.55;6.93;;;;;;;;;;6308105;22;20030;-82
2023/05/21 10:26:22;;;;;;;8.25;7.18;;;;;;;;;;6308414;22;20043;-82
2023/05/21 10:28:52;;;;;;;8.25;7.00;;;;;;;;;;6309341;22;20047;-82
2023/05/21 10:31:18;;;;;;;8.07;7.45;;;;;;;;;;6282699;22;20019;-82
2023/05/21 10:33:44;;;;;;;8.10;7.55;;;;;;;;;;6309717;22;20110;-82
2023/05/21 10:36:11;;;;;;;7.38;6.78;;;;;;;;;;6308357;22;20029;-82
2023/05/21 10:38:38;;;;;;;7.40;6.72;;;;;;;;;;6311212;22;20050;-81
2023/05/21 10:41:05;;;;;;;7.53;6.82;;;;;;;;;;6309734;22;20464;-82
2023/05/21 10:43:38;;;;;;;8.55;7.88;;;;;;;;;;6310855;22;20019;-81
2023/05/21 10:46:23;;;;;;;8.55;7.95;;;;;;;;;;6309764;22;20122;-82
2023/05/21 10:49:01;;;;;;;8.48;7.78;;;;;;;;;;6308112;22;20016;-82
2023/05/21 10:51:43;;;;;;;9.55;8.00;;;;;;;;;;6308124;22;20426;-82
2023/05/21 10:54:12;;;;;;;9.05;7.75;;;;;;;;;;6282273;22;20072;-82
2023/05/21 10:56:57;;;;;;;7.72;7.07;;;;;;;;;;6308504;22;20333;-82
2023/05/21 10:59:41;;;;;;;9.43;8.60;;;;;;;;;;6308603;22;20015;-81
2023/05/21 11:02:08;;;;;;;9.77;8.80;;;;;;;;;;6308060;22;20019;-82
2023/05/21 11:04:38;;;;;;;9.77;8.93;;;;;;;;;;6307613;22;20445;-82
2023/05/21 11:07:05;;;;;;;9.68;8.88;;;;;;;;;;6282189;22;20027;-82
2023/05/21 11:09:31;;;;;;;9.85;9.10;;;;;;;;;;6308052;22;20050;-82
2023/05/21 11:11:58;;;;;;;9.27;8.40;;;;;;;;;;6307509;22;20015;-83
2023/05/21 11:14:41;;;;;;;9.90;9.02;;;;;;;;;;6308373;22;20334;-82
2023/05/21 11:17:35;;;;;;;10.27;9.40;;;;;;;;;;6308990;22;20019;-83
2023/05/21 11:20:07;;;;;;;10.48;9.68;;;;;;;;;;6282080;22;20023;-83
2023/05/21 11:22:35;;;;;;;10.32;9.35;;;;;;;;;;6307901;22;20023;-82
2023/05/21 11:25:02;;;;;;;10.20;9.30;;;;;;;;;;6281782;22;20019;-82
2023/05/21 11:27:33;;;;;;;10.25;9.50;;;;;;;;;;6307912;22;20016;-82
2023/05/21 11:29:59;;;;;;;11.38;10.15;;;;;;;;;;6308072;22;20015;-81
2023/05/21 11:32:26;;;;;;;10.45;9.52;;;;;;;;;;6307018;22;20425;-81
2023/05/21 11:34:52;;;;;;;10.77;9.90;;;;;;;;;;6309217;22;20054;-82
2023/05/21 11:37:19;;;;;;;11.30;10.40;;;;;;;;;;6281554;22;20102;-81
2023/05/21 11:39:46;;;;;;;11.55;10.55;;;;;;;;;;6281826;22;20341;-82
2023/05/21 11:42:12;;;;;;;10.75;9.90;;;;;;;;;;6309826;22;20015;-81
2023/05/21 11:44:41;;;;;;;11.30;10.32;;;;;;;;;;6281855;22;20019;-81
2023/05/21 11:47:11;;;;;;;11.15;10.05;;;;;;;;;;6308622;22;20085;-81
2023/05/21 11:49:37;;;;;;;10.82;10.02;;;;;;;;;;6308573;22;20061;-81
2023/05/21 11:52:04;;;;;;;11.80;10.68;;;;;;;;;;6309014;22;20378;-82
2023/05/21 11:54:36;;;;;;;12.32;11.02;;;;;;;;;;6307528;22;20088;-82
2023/05/21 11:57:08;;;;;;;10.25;9.50;;;;;;;;;;6307528;22;20051;-82
2023/05/21 11:59:35;;;;;;;11.70;10.70;;;;;;;;;;6309056;22;20019;-83
2023/05/21 12:02:01;;;;;;;13.07;11.70;;;;;;;;;;6307627;22;20316;-83
2023/05/21 12:04:31;;;;;;;13.63;12.38;;;;;;;;;;6307060;22;20026;-82
2023/05/21 12:06:57;;;;;;;12.82;11.75;;;;;;;;;;6308895;22;20058;-83
2023/05/21 12:09:24;;;;;;;12.20;11.02;;;;;;;;;;6307724;22;20015;-83
2023/05/21 12:11:50;;;;;;;14.75;12.95;;;;;;;;;;6307609;22;20015;-83
2023/05/21 12:14:16;;;;;;;14.07;12.65;;;;;;;;;;6307393;22;20498;-82
2023/05/21 12:16:42;;;;;;;11.95;10.75;;;;;;;;;;6308838;22;20030;-82
2023/05/21 12:19:09;;;;;;;11.50;10.50;;;;;;;;;;6307682;22;20457;-82
2023/05/21 12:21:35;;;;;;;13.15;12.00;;;;;;;;;;6307952;22;20333;-82
2023/05/21 12:24:01;;;;;;;13.63;12.48;;;;;;;;;;6307208;22;20019;-82
2023/05/21 12:26:28;;;;;;;14.55;13.35;;;;;;;;;;6307177;22;20057;-83
2023/05/21 12:28:54;;;;;;;12.35;11.35;;;;;;;;;;6307132;22;20452;-82
2023/05/21 12:31:26;;;;;;;14.52;13.32;;;;;;;;;;6309502;22;20073;-82
2023/05/21 12:33:52;;;;;;;14.55;13.23;;;;;;;;;;6306831;22;20430;-82
2023/05/21 12:36:30;;;;;;;13.43;12.43;;;;;;;;;;6308891;22;20019;-82
2023/05/21 12:38:57;;;;;;;12.27;11.35;;;;;;;;;;6307173;22;20015;-82
2023/05/21 12:41:23;;;;;;;13.73;12.50;;;;;;;;;;6308714;22;20022;-82
2023/05/21 12:43:50;;;;;;;14.32;13.05;;;;;;;;;;6308377;22;20057;-82
2023/05/21 12:46:17;;;;;;;13.75;12.38;;;;;;;;;;6282264;22;20069;-82
2023/05/21 12:48:52;;;;;;;12.30;11.23;;;;;;;;;;6308553;22;20026;-82
2023/05/21 12:51:19;;;;;;;12.57;11.70;;;;;;;;;;6280848;22;20019;-81
2023/05/21 12:53:45;;;;;;;12.30;11.35;;;;;;;;;;6282092;22;20019;-81
2023/05/21 12:56:12;;;;;;;13.05;11.98;;;;;;;;;;6308458;22;20029;-82
2023/05/21 12:58:38;;;;;;;13.13;12.15;;;;;;;;;;6307802;22;20360;-82
2023/05/21 13:01:07;;;;;;;14.13;12.85;;;;;;;;;;6309101;22;20073;-82
2023/05/21 13:03:34;;;;;;;13.75;12.48;;;;;;;;;;6306697;22;20051;-82
2023/05/21 13:06:00;;;;;;;13.68;12.48;;;;;;;;;;6307209;22;20426;-82
2023/05/21 13:08:27;;;;;;;13.48;12.25;;;;;;;;;;6308342;22;20023;-82
2023/05/21 13:10:53;;;;;;;13.15;11.98;;;;;;;;;;6307102;22;20019;-82
2023/05/21 13:13:19;;;;;;;13.98;12.85;;;;;;;;;;6306731;22;20015;-82
2023/05/21 13:15:45;;;;;;;13.90;12.80;;;;;;;;;;6308257;22;20030;-82
2023/05/21 13:18:11;;;;;;;12.60;11.60;;;;;;;;;;6306728;22;20512;-81
2023/05/21 13:20:37;;;;;;;14.63;13.52;;;;;;;;;;6307977;22;20042;-81
2023/05/21 13:23:03;;;;;;;12.35;11.35;;;;;;;;;;6308319;22;20034;-81
2023/05/21 13:25:31;;;;;;;12.95;12.05;;;;;;;;;;6308150;22;20024;-82
2023/05/21 13:28:01;;;;;;;13.48;12.50;;;;;;;;;;6306773;22;20015;-82
2023/05/21 13:30:27;;;;;;;13.30;12.00;;;;;;;;;;6306684;22;20019;-82
2023/05/21 13:32:54;;;;;;;13.50;12.38;;;;;;;;;;6306560;22;20019;-82
2023/05/21 13:35:20;;;;;;;13.02;12.13;;;;;;;;;;6307722;22;20019;-82
2023/05/21 13:37:46;;;;;;;13.50;12.30;;;;;;;;;;6306640;22;20090;-82
2023/05/21 13:40:13;;;;;;;14.77;13.40;;;;;;;;;;6308126;22;20097;-82
2023/05/21 13:42:40;;;;;;;13.45;12.45;;;;;;;;;;6307677;22;20100;-82
2023/05/21 13:45:10;;;;;;;13.07;12.07;;;;;;;;;;6306716;22;20019;-82
2023/05/21 13:47:36;;;;;;;13.38;12.23;;;;;;;;;;6306588;22;20043;-83
2023/05/21 13:50:03;;;;;;;11.93;10.93;;;;;;;;;;6306883;22;20042;-82
2023/05/21 13:52:29;;;;;;;12.73;11.73;;;;;;;;;;6308994;22;20019;-83
2023/05/21 13:54:55;;;;;;;14.05;12.85;;;;;;;;;;6307066;22;20015;-82
2023/05/21 13:57:21;;;;;;;12.00;11.07;;;;;;;;;;6308754;22;20023;-82
2023/05/21 13:59:49;;;;;;;12.13;11.13;;;;;;;;;;6283233;22;20077;-82
2023/05/21 14:02:15;;;;;;;12.10;11.05;;;;;;;;;;6283381;22;20073;-82
2023/05/21 14:04:41;;;;;;;11.18;10.38;;;;;;;;;;6309664;22;20022;-83
2023/05/21 14:07:07;;;;;;;10.82;10.02;;;;;;;;;;6308905;22;20460;-82
2023/05/21 14:09:34;;;;;;;11.50;10.48;;;;;;;;;;6310071;22;20456;-82
2023/05/21 14:12:00;;;;;;;12.27;11.27;;;;;;;;;;6310032;22;20019;-82
2023/05/21 14:14:27;;;;;;;11.55;10.55;;;;;;;;;;6309597;22;20508;-82
2023/05/21 14:16:53;;;;;;;12.25;11.30;;;;;;;;;;6308524;22;20019;-82
2023/05/21 14:19:19;;;;;;;10.85;10.05;;;;;;;;;;6308626;22;20026;-81
2023/05/21 14:21:45;;;;;;;12.13;11.20;;;;;;;;;;6282781;22;20101;-82
2023/05/21 14:24:11;;;;;;;11.18;10.25;;;;;;;;;;6310023;22;20061;-82
2023/05/21 14:26:40;;;;;;;11.23;10.40;;;;;;;;;;6282863;22;20027;-82
2023/05/21 14:29:06;;;;;;;12.10;10.88;;;;;;;;;;6308656;22;20022;-82
2023/05/21 14:31:32;;;;;;;12.55;11.55;;;;;;;;;;6283114;22;20027;-82
2023/05/21 14:33:58;;;;;;;11.85;10.77;;;;;;;;;;6308541;22;20016;-82
2023/05/21 14:36:24;;;;;;;12.60;11.70;;;;;;;;;;6309750;22;20062;-82
2023/05/21 14:38:50;;;;;;;12.80;11.48;;;;;;;;;;6309951;22;20026;-81